createdAt,value
2023-11-08T00:01:30.516Z,98872.01
2023-11-08T00:03:58.000Z,98877.61
2023-11-08T00:06:25.468Z,98878.09
2023-11-08T00:08:53.072Z,98877.60
2023-11-08T00:11:24.854Z,98874.85
2023-11-08T00:13:52.721Z,98870.44
2023-11-08T00:16:20.158Z,98870.38
2023-11-08T00:18:47.607Z,98868.44
2023-11-08T00:21:15.192Z,98862.65
2023-11-08T00:23:42.730Z,98858.73
2023-11-08T00:26:12.164Z,98854.38
2023-11-08T00:28:40.515Z,98849.14
2023-11-08T00:31:08.693Z,98847.09
2023-11-08T00:33:36.176Z,98839.29
2023-11-08T00:36:03.998Z,98833.54
2023-11-08T00:38:31.348Z,98829.58
2023-11-08T00:40:59.273Z,98830.35
2023-11-08T00:43:26.880Z,98830.58
2023-11-08T00:45:54.983Z,98823.98
2023-11-08T00:48:24.960Z,98824.48
2023-11-08T00:50:54.854Z,98822.06
2023-11-08T00:53:23.013Z,98823.14
2023-11-08T00:55:50.900Z,98825.73
2023-11-08T00:58:18.341Z,98820.23
2023-11-08T01:00:46.202Z,98821.02
2023-11-08T01:03:14.472Z,98818.47
2023-11-08T01:05:42.427Z,98814.64
2023-11-08T01:08:13.262Z,98813.66
2023-11-08T01:10:44.409Z,98807.88
2023-11-08T01:13:14.361Z,98803.38
2023-11-08T01:15:41.817Z,98795.77
2023-11-08T01:18:09.853Z,98794.55
2023-11-08T01:20:38.592Z,98787.94
2023-11-08T01:23:05.974Z,98786.89
2023-11-08T01:25:33.554Z,98785.45
2023-11-08T01:28:01.312Z,98782.16
2023-11-08T01:30:28.844Z,98785.23
2023-11-08T01:32:58.679Z,98786.55
2023-11-08T01:35:26.368Z,98789.02
2023-11-08T01:37:53.770Z,98785.45
2023-11-08T01:40:22.336Z,98783.70
2023-11-08T01:42:49.775Z,98788.92
2023-11-08T01:45:18.007Z,98792.09
2023-11-08T01:47:45.742Z,98789.11
2023-11-08T01:50:13.227Z,98785.14
2023-11-08T01:52:40.655Z,98782.88
2023-11-08T01:55:08.825Z,98779.60
2023-11-08T01:57:37.127Z,98779.75
2023-11-08T02:00:06.619Z,98780.45
2023-11-08T02:02:40.810Z,98779.35
2023-11-08T02:05:08.765Z,98783.33
2023-11-08T02:09:06.462Z,98768.29
2023-11-08T02:11:34.478Z,98766.38
2023-11-08T02:14:02.966Z,98760.27
2023-11-08T02:16:33.925Z,98755.93
2023-11-08T02:19:01.413Z,98752.52
2023-11-08T02:21:28.938Z,98756.54
2023-11-08T02:23:56.510Z,98764.37
2023-11-08T02:26:24.073Z,98760.60
2023-11-08T02:28:51.943Z,98758.23
2023-11-08T02:31:19.602Z,98758.27
2023-11-08T02:33:47.063Z,98752.37
2023-11-08T02:36:15.449Z,98751.23
2023-11-08T02:38:43.057Z,98751.86
2023-11-08T02:41:10.479Z,98755.42
2023-11-08T02:43:37.902Z,98758.48
2023-11-08T02:46:05.693Z,98763.61
2023-11-08T02:48:33.824Z,98754.56
2023-11-08T02:51:02.027Z,98747.67
2023-11-08T02:53:30.228Z,98748.05
2023-11-08T02:55:58.126Z,98748.48
2023-11-08T02:58:25.470Z,98748.40
2023-11-08T03:00:56.063Z,98750.70
2023-11-08T03:03:23.673Z,98749.25
2023-11-08T03:05:51.845Z,98747.44
2023-11-08T03:08:19.888Z,98745.08
2023-11-08T03:10:47.362Z,98735.73
2023-11-08T03:13:16.177Z,98723.30
2023-11-08T03:15:43.892Z,98721.81
2023-11-08T03:18:11.416Z,98718.41
2023-11-08T03:20:40.348Z,98714.56
2023-11-08T03:23:08.282Z,98713.23
2023-11-08T03:25:35.703Z,98707.90
2023-11-08T03:28:03.517Z,98707.06
2023-11-08T03:30:31.006Z,98709.56
2023-11-08T03:32:59.434Z,98709.59
2023-11-08T03:35:26.937Z,98703.95
2023-11-08T03:37:56.342Z,98701.52
2023-11-08T03:40:23.737Z,98701.20
2023-11-08T03:42:51.495Z,98702.38
2023-11-08T03:45:18.998Z,98703.45
2023-11-08T03:47:46.394Z,98704.45
2023-11-08T03:50:13.880Z,98708.67
2023-11-08T03:52:41.311Z,98701.52
2023-11-08T03:55:09.570Z,98700.66
2023-11-08T03:57:37.379Z,98707.77
2023-11-08T04:00:06.154Z,98704.77
2023-11-08T04:02:37.804Z,98698.64
2023-11-08T04:05:05.542Z,98695.85
2023-11-08T04:07:33.054Z,98685.77
2023-11-08T04:10:00.523Z,98677.34
2023-11-08T04:12:28.384Z,98673.23
2023-11-08T04:14:55.918Z,98669.59
2023-11-08T04:17:23.379Z,98661.70
2023-11-08T04:19:50.950Z,98653.04
2023-11-08T04:22:19.158Z,98651.21
2023-11-08T04:24:46.722Z,98648.42
2023-11-08T04:27:14.335Z,98658.92
2023-11-08T04:29:43.269Z,98660.71
2023-11-08T04:32:10.813Z,98658.94
2023-11-08T04:34:38.321Z,98657.68
2023-11-08T04:37:10.941Z,98657.44
2023-11-08T04:39:38.825Z,98657.23
2023-11-08T04:42:07.350Z,98656.06
2023-11-08T04:44:35.250Z,98661.08
2023-11-08T04:47:03.088Z,98671.47
2023-11-08T04:49:30.559Z,98672.10
2023-11-08T04:51:58.042Z,98668.30
2023-11-08T04:54:26.116Z,98667.50
2023-11-08T04:56:54.376Z,98665.70
2023-11-08T04:59:21.742Z,98668.31
2023-11-08T05:01:49.296Z,98673.00
2023-11-08T05:04:16.695Z,98681.63
2023-11-08T05:06:44.230Z,98679.46
2023-11-08T05:09:16.701Z,98686.55
2023-11-08T05:11:44.428Z,98692.67
2023-11-08T05:14:12.907Z,98680.21
2023-11-08T05:16:40.984Z,98675.81
2023-11-08T05:19:08.659Z,98670.49
2023-11-08T05:21:36.247Z,98661.52
2023-11-08T05:24:03.768Z,98654.77
2023-11-08T05:26:31.101Z,98645.38
2023-11-08T05:28:58.447Z,98645.40
2023-11-08T05:31:25.866Z,98646.08
2023-11-08T05:33:54.244Z,98635.85
2023-11-08T05:36:21.698Z,98645.73
2023-11-08T05:38:49.230Z,98662.16
2023-11-08T05:41:20.650Z,98665.55
2023-11-08T05:43:48.166Z,98659.58
2023-11-08T05:46:15.596Z,98655.74
2023-11-08T05:48:43.246Z,98659.42
2023-11-08T05:51:10.620Z,98663.95
2023-11-08T05:53:39.012Z,98672.30
2023-11-08T05:56:07.812Z,98674.95
2023-11-08T05:58:36.929Z,98672.48
2023-11-08T06:01:06.122Z,98668.58
2023-11-08T06:03:33.548Z,98664.87
2023-11-08T06:06:01.134Z,98674.92
2023-11-08T06:08:28.557Z,98674.83
2023-11-08T06:10:55.953Z,98667.77
2023-11-08T06:13:23.871Z,98662.52
2023-11-08T06:15:51.413Z,98659.16
2023-11-08T06:18:21.888Z,98660.14
2023-11-08T06:20:49.547Z,98653.73
2023-11-08T06:23:16.989Z,98648.76
2023-11-08T06:25:45.237Z,98645.95
2023-11-08T06:28:12.989Z,98633.56
2023-11-08T06:30:40.728Z,98627.33
2023-11-08T06:33:09.142Z,98617.29
2023-11-08T06:35:39.023Z,98616.95
2023-11-08T06:38:06.431Z,98618.20
2023-11-08T06:40:33.774Z,98609.76
2023-11-08T06:43:01.299Z,98601.14
2023-11-08T06:45:28.714Z,98591.74
2023-11-08T06:47:56.191Z,98591.31
2023-11-08T06:50:23.654Z,98588.42
2023-11-08T06:52:51.007Z,98581.99
2023-11-08T06:55:23.325Z,98566.03
2023-11-08T06:58:03.331Z,98559.44
2023-11-08T07:00:30.924Z,98552.21
2023-11-08T07:02:58.562Z,98547.30
2023-11-08T07:05:30.405Z,98540.38
2023-11-08T07:08:04.223Z,98544.30
2023-11-08T07:10:31.674Z,98541.45
2023-11-08T07:12:59.175Z,98542.05
2023-11-08T07:15:28.076Z,98538.84
2023-11-08T07:17:55.691Z,98547.84
2023-11-08T07:20:23.658Z,98547.29
2023-11-08T07:22:51.092Z,98551.70
2023-11-08T07:25:19.180Z,98554.66
2023-11-08T07:27:46.635Z,98562.17
2023-11-08T07:30:16.191Z,98559.95
2023-11-08T07:32:47.372Z,98555.82
2023-11-08T07:35:15.131Z,98556.86
2023-11-08T07:37:42.555Z,98556.09
2023-11-08T07:40:13.862Z,98554.02
2023-11-08T07:42:42.068Z,98547.46
2023-11-08T07:45:10.577Z,98538.13
2023-11-08T07:47:38.224Z,98527.39
2023-11-08T07:50:07.779Z,98518.56
2023-11-08T07:52:35.310Z,98508.92
2023-11-08T07:55:02.887Z,98505.92
2023-11-08T07:57:30.369Z,98501.10
2023-11-08T07:59:57.791Z,98503.58
2023-11-08T08:02:25.270Z,98505.85
2023-11-08T08:04:55.379Z,98499.61
2023-11-08T08:07:22.959Z,98494.99
2023-11-08T08:09:50.443Z,98491.07
2023-11-08T08:12:17.884Z,98479.23
2023-11-08T08:14:45.303Z,98479.30
2023-11-08T08:17:14.104Z,98481.28
2023-11-08T08:19:42.377Z,98485.25
2023-11-08T08:22:10.024Z,98486.33
2023-11-08T08:24:37.710Z,98480.05
2023-11-08T08:27:05.489Z,98473.74
2023-11-08T08:29:33.311Z,98476.43
2023-11-08T08:32:00.777Z,98478.04
2023-11-08T08:34:31.616Z,98478.63
2023-11-08T08:37:00.051Z,98476.94
2023-11-08T08:39:29.821Z,98479.89
2023-11-08T08:41:58.307Z,98471.39
2023-11-08T08:44:25.763Z,98471.05
2023-11-08T08:46:53.460Z,98473.10
2023-11-08T08:49:23.005Z,98469.98
2023-11-08T08:51:51.367Z,98462.35
2023-11-08T08:54:22.782Z,98455.91
2023-11-08T08:56:50.843Z,98454.13
2023-11-08T08:59:18.261Z,98447.40
2023-11-08T09:01:45.774Z,98442.31
2023-11-08T09:04:13.600Z,98435.89
2023-11-08T09:06:41.266Z,98422.45
2023-11-08T09:09:14.515Z,98414.40
2023-11-08T09:11:42.225Z,98412.11
2023-11-08T09:14:10.113Z,98407.58
2023-11-08T09:16:39.589Z,98397.87
2023-11-08T09:19:11.476Z,98392.02
2023-11-08T09:21:39.370Z,98386.63
2023-11-08T09:24:08.130Z,98388.75
2023-11-08T09:26:41.655Z,98386.16
2023-11-08T09:29:09.484Z,98388.59
2023-11-08T09:31:38.479Z,98386.95
2023-11-08T09:34:06.096Z,98386.16
2023-11-08T09:36:34.271Z,98382.27
2023-11-08T09:39:02.327Z,98379.10
2023-11-08T09:41:29.957Z,98374.43
2023-11-08T09:43:57.525Z,98370.19
2023-11-08T09:46:26.223Z,98365.96
2023-11-08T09:48:55.846Z,98363.21
2023-11-08T09:51:23.464Z,98357.23
2023-11-08T09:53:51.436Z,98352.66
2023-11-08T09:56:18.882Z,98354.77
2023-11-08T09:58:49.319Z,98360.56
2023-11-08T10:01:17.426Z,98358.14
2023-11-08T10:03:45.771Z,98355.80
2023-11-08T10:06:13.688Z,98349.16
2023-11-08T10:08:41.240Z,98344.45
2023-11-08T10:11:08.730Z,98340.99
2023-11-08T10:13:49.954Z,98337.38
2023-11-08T10:16:18.644Z,98328.95
2023-11-08T10:19:36.064Z,98329.31
2023-11-08T10:21:50.604Z,98324.78
2023-11-08T10:24:18.491Z,98330.63
2023-11-08T10:26:47.585Z,98324.70
2023-11-08T10:29:15.653Z,98324.44
2023-11-08T10:31:43.538Z,98321.10
2023-11-08T10:34:12.610Z,98317.37
2023-11-08T10:36:40.838Z,98312.62
2023-11-08T10:39:16.803Z,98309.90
2023-11-08T10:41:45.049Z,98311.44
2023-11-08T10:44:23.454Z,98307.02
2023-11-08T10:47:02.141Z,98303.56
2023-11-08T10:49:29.615Z,98297.85
2023-11-08T10:51:58.265Z,98294.46
2023-11-08T10:54:26.265Z,98289.96
2023-11-08T10:56:53.818Z,98284.23
2023-11-08T10:59:21.389Z,98272.40
2023-11-08T11:01:48.932Z,98263.70
2023-11-08T11:04:16.955Z,98267.58
2023-11-08T11:06:44.758Z,98263.52
2023-11-08T11:09:12.504Z,98253.92
2023-11-08T11:11:43.906Z,98238.65
2023-11-08T11:14:38.980Z,98231.42
2023-11-08T11:17:31.439Z,98217.52
2023-11-08T11:20:02.282Z,98218.31
2023-11-08T11:22:29.722Z,98226.65
2023-11-08T11:24:58.507Z,98226.06
2023-11-08T11:27:35.317Z,98225.17
2023-11-08T11:30:15.388Z,98231.61
2023-11-08T11:32:48.348Z,98222.77
2023-11-08T11:35:19.936Z,98210.70
2023-11-08T11:38:11.593Z,98199.59
2023-11-08T11:40:49.938Z,98191.85
2023-11-08T11:43:33.779Z,98185.30
2023-11-08T11:46:03.376Z,98196.20
2023-11-08T11:48:34.846Z,98200.36
2023-11-08T11:51:03.255Z,98203.56
2023-11-08T11:53:31.663Z,98208.31
2023-11-08T11:56:06.645Z,98208.09
2023-11-08T11:58:34.114Z,98210.90
2023-11-08T12:01:01.647Z,98212.45
2023-11-08T12:03:29.166Z,98212.69
2023-11-08T12:05:56.833Z,98217.04
2023-11-08T12:08:25.348Z,98222.30
2023-11-08T12:10:52.787Z,98221.64
2023-11-08T12:13:20.221Z,98221.98
2023-11-08T12:16:00.618Z,98230.54
2023-11-08T12:18:28.200Z,98233.17
2023-11-08T12:20:55.644Z,98227.38
2023-11-08T12:23:23.513Z,98223.62
2023-11-08T12:25:51.820Z,98215.60
2023-11-08T12:28:19.210Z,98216.56
2023-11-08T12:30:47.372Z,98211.98
2023-11-08T12:33:15.633Z,98205.90
2023-11-08T12:35:43.662Z,98204.73
2023-11-08T12:38:11.115Z,98217.95
2023-11-08T12:40:38.680Z,98224.10
2023-11-08T12:43:56.796Z,98216.95
2023-11-08T12:46:36.141Z,98209.85
2023-11-08T12:49:01.593Z,98197.87
2023-11-08T12:51:31.021Z,98191.77
2023-11-08T12:53:58.547Z,98202.58
2023-11-08T12:56:25.975Z,98200.29
2023-11-08T12:58:53.419Z,98207.00
2023-11-08T13:01:21.063Z,98205.44
2023-11-08T13:03:48.702Z,98202.17
2023-11-08T13:06:16.151Z,98194.91
2023-11-08T13:08:53.885Z,98190.85
2023-11-08T13:11:21.363Z,98190.83
2023-11-08T13:13:49.111Z,98192.05
2023-11-08T13:16:16.564Z,98189.39
2023-11-08T13:18:44.329Z,98186.65
2023-11-08T13:21:11.765Z,98192.51
2023-11-08T13:24:01.576Z,98206.11
2023-11-08T13:26:26.869Z,98204.73
2023-11-08T13:28:54.314Z,98203.30
2023-11-08T13:31:21.747Z,98204.88
2023-11-08T13:33:49.567Z,98208.68
2023-11-08T13:36:17.287Z,98210.73
2023-11-08T13:38:44.734Z,98215.71
2023-11-08T13:41:12.249Z,98217.30
2023-11-08T13:43:39.776Z,98218.95
2023-11-08T13:46:08.996Z,98217.55
2023-11-08T13:48:36.985Z,98222.15
2023-11-08T13:51:07.968Z,98222.17
2023-11-08T13:53:35.898Z,98223.30
2023-11-08T13:56:04.118Z,98224.25
2023-11-08T13:58:34.930Z,98221.91
2023-11-08T14:01:08.857Z,98218.14
2023-11-08T14:03:37.487Z,98214.67
2023-11-08T14:06:07.632Z,98216.50
2023-11-08T14:08:35.517Z,98216.95
2023-11-08T14:11:03.166Z,98217.16
2023-11-08T14:13:30.714Z,98210.98
2023-11-08T14:15:58.265Z,98209.11
2023-11-08T14:18:25.899Z,98207.19
2023-11-08T14:20:56.065Z,98203.78
2023-11-08T14:23:23.626Z,98196.27
2023-11-08T14:26:51.989Z,98192.67
2023-11-08T14:29:27.705Z,98191.36
2023-11-08T14:32:01.511Z,98187.92
2023-11-08T14:34:31.955Z,98188.05
2023-11-08T14:36:59.801Z,98186.13
2023-11-08T14:39:27.349Z,98184.17
2023-11-08T14:41:54.773Z,98188.46
2023-11-08T14:44:22.321Z,98189.55
2023-11-08T14:46:50.063Z,98190.84
2023-11-08T14:49:17.635Z,98191.70
2023-11-08T14:51:48.808Z,98190.08
2023-11-08T14:54:16.911Z,98188.30
2023-11-08T14:56:44.401Z,98184.96
2023-11-08T14:59:11.886Z,98191.55
2023-11-08T15:01:39.447Z,98197.99
2023-11-08T15:04:09.496Z,98208.06
2023-11-08T15:06:37.381Z,98211.09
2023-11-08T15:09:51.953Z,98215.68
2023-11-08T15:11:52.934Z,98218.24
2023-11-08T15:14:21.186Z,98221.00
2023-11-08T15:16:48.712Z,98224.67
2023-11-08T15:19:16.190Z,98222.00
2023-11-08T15:21:43.826Z,98222.61
2023-11-08T15:24:11.386Z,98222.48
2023-11-08T15:26:39.255Z,98225.67
2023-11-08T15:29:06.826Z,98229.11
2023-11-08T15:31:34.350Z,98230.83
2023-11-08T15:34:02.415Z,98233.67
2023-11-08T15:36:29.913Z,98235.52
2023-11-08T15:38:57.406Z,98232.91
2023-11-08T15:41:25.170Z,98231.17
2023-11-08T15:43:53.719Z,98235.73
2023-11-08T15:46:22.124Z,98241.38
2023-11-08T15:48:50.329Z,98242.61
2023-11-08T15:51:18.423Z,98245.98
2023-11-08T15:53:46.220Z,98243.53
2023-11-08T15:56:14.386Z,98244.92
2023-11-08T15:58:42.044Z,98245.31
2023-11-08T16:01:09.575Z,98241.55
2023-11-08T16:03:37.918Z,98240.73
2023-11-08T16:06:05.797Z,98237.02
2023-11-08T16:08:33.635Z,98230.16
2023-11-08T16:11:01.117Z,98227.39
2023-11-08T16:13:28.662Z,98231.20
2023-11-08T16:15:56.242Z,98235.61
2023-11-08T16:18:24.794Z,98240.58
2023-11-08T16:20:52.445Z,98237.06
2023-11-08T16:23:21.399Z,98232.95
2023-11-08T16:25:49.287Z,98237.30
2023-11-08T16:28:16.936Z,98238.52
2023-11-08T16:31:00.800Z,98238.58
2023-11-08T16:33:34.354Z,98244.51
2023-11-08T16:36:02.466Z,98246.50
2023-11-08T16:38:30.030Z,98252.45
2023-11-08T16:40:58.058Z,98254.11
2023-11-08T16:45:59.327Z,98248.89
2023-11-08T16:48:27.367Z,98251.73
2023-11-08T16:50:54.838Z,98247.29
2023-11-08T16:53:22.382Z,98254.02
2023-11-08T16:55:49.815Z,98258.20
2023-11-08T16:58:19.175Z,98260.67
2023-11-08T17:00:47.987Z,98264.70
2023-11-08T17:03:17.837Z,98271.27
2023-11-08T17:05:45.964Z,98274.08
2023-11-08T17:08:13.707Z,98279.98
2023-11-08T17:10:41.188Z,98284.83
2023-11-08T17:13:10.869Z,98279.67
2023-11-08T17:15:41.019Z,98284.27
2023-11-08T17:18:09.069Z,98279.94
2023-11-08T17:20:36.583Z,98274.42
2023-11-08T17:23:04.086Z,98273.98
2023-11-08T17:25:31.511Z,98273.00
2023-11-08T17:27:59.359Z,98260.80
2023-11-08T17:30:26.913Z,98262.92
2023-11-08T17:32:55.392Z,98266.35
2023-11-08T17:35:22.923Z,98272.54
2023-11-08T17:37:50.559Z,98274.63
2023-11-08T17:40:18.490Z,98270.80
2023-11-08T17:42:46.023Z,98269.63
2023-11-08T17:45:13.648Z,98270.06
2023-11-08T17:47:42.304Z,98268.38
2023-11-08T17:50:10.816Z,98269.49
2023-11-08T17:52:38.311Z,98271.43
2023-11-08T17:55:06.234Z,98265.02
2023-11-08T17:57:33.717Z,98269.77
2023-11-08T18:00:01.319Z,98274.16
2023-11-08T18:02:32.105Z,98276.94
2023-11-08T18:05:00.862Z,98284.34
2023-11-08T18:07:28.355Z,98287.27
2023-11-08T18:09:56.735Z,98288.04
2023-11-08T18:12:24.586Z,98294.21
2023-11-08T18:14:51.987Z,98302.45
2023-11-08T18:17:19.475Z,98303.48
2023-11-08T18:19:47.347Z,98303.98
2023-11-08T18:22:15.139Z,98311.40
2023-11-08T18:24:42.563Z,98310.38
2023-11-08T18:27:10.149Z,98313.13
2023-11-08T18:29:37.603Z,98317.20
2023-11-08T18:32:05.071Z,98314.33
2023-11-08T18:34:32.592Z,98311.51
2023-11-08T18:37:00.161Z,98309.95
2023-11-08T18:39:27.698Z,98302.08
2023-11-08T18:41:55.222Z,98305.20
2023-11-08T18:44:23.151Z,98305.09
2023-11-08T18:46:52.157Z,98309.77
2023-11-08T18:49:19.725Z,98310.55
2023-11-08T18:51:48.222Z,98306.81
2023-11-08T18:54:15.797Z,98308.61
2023-11-08T18:56:43.795Z,98305.45
2023-11-08T18:59:13.479Z,98310.86
2023-11-08T19:01:41.426Z,98312.05
2023-11-08T19:04:09.757Z,98308.81
2023-11-08T19:06:42.085Z,98315.32
2023-11-08T19:09:09.603Z,98314.64
2023-11-08T19:11:37.014Z,98322.98
2023-11-08T19:14:04.652Z,98328.29
2023-11-08T19:16:32.319Z,98333.46
2023-11-08T19:19:00.042Z,98323.45
2023-11-08T19:21:28.634Z,98332.21
2023-11-08T19:23:56.320Z,98338.61
2023-11-08T19:26:23.949Z,98335.79
2023-11-08T19:28:52.568Z,98332.06
2023-11-08T19:31:20.284Z,98332.80
2023-11-08T19:33:47.859Z,98336.45
2023-11-08T19:36:15.372Z,98340.70
2023-11-08T19:38:43.838Z,98331.61
2023-11-08T19:41:12.164Z,98341.94
2023-11-08T19:43:39.680Z,98340.58
2023-11-08T19:46:08.145Z,98340.57
2023-11-08T19:48:35.634Z,98345.85
2023-11-08T19:51:03.228Z,98343.73
2023-11-08T19:53:31.815Z,98347.66
2023-11-08T19:56:06.501Z,98349.31
2023-11-08T19:58:34.640Z,98349.99
2023-11-08T20:01:03.354Z,98350.02
2023-11-08T20:03:30.768Z,98352.10
2023-11-08T20:05:58.606Z,98352.85
2023-11-08T20:08:26.184Z,98355.09
2023-11-08T20:10:54.488Z,98357.65
2023-11-08T20:13:22.803Z,98358.98
2023-11-08T20:15:50.334Z,98366.64
2023-11-08T20:18:17.862Z,98364.23
2023-11-08T20:20:46.773Z,98366.20
2023-11-08T20:23:14.192Z,98367.56
2023-11-08T20:25:41.896Z,98373.58
2023-11-08T20:28:10.176Z,98362.04
2023-11-08T20:30:38.267Z,98360.59
2023-11-08T20:33:07.000Z,98359.16
2023-11-08T20:35:35.193Z,98360.73
2023-11-08T20:38:03.313Z,98359.27
2023-11-08T20:40:30.815Z,98355.24
2023-11-08T20:42:58.578Z,98359.36
2023-11-08T20:45:26.256Z,98361.36
2023-11-08T20:47:53.762Z,98359.91
2023-11-08T20:50:22.597Z,98361.27
2023-11-08T20:52:50.043Z,98354.73
2023-11-08T20:55:17.564Z,98359.76
2023-11-08T20:57:45.734Z,98360.74
2023-11-08T21:00:14.551Z,98356.55
2023-11-08T21:02:42.395Z,98358.05
2023-11-08T21:05:10.415Z,98360.73
2023-11-08T21:07:37.782Z,98366.50
2023-11-08T21:10:06.433Z,98364.99
2023-11-08T21:12:33.937Z,98370.81
2023-11-08T21:15:01.442Z,98370.55
2023-11-08T21:17:28.868Z,98367.73
2023-11-08T21:19:56.354Z,98375.64
2023-11-08T21:22:23.941Z,98371.02
2023-11-08T21:24:51.411Z,98373.19
2023-11-08T21:27:18.905Z,98374.13
2023-11-08T21:29:46.433Z,98379.05
2023-11-08T21:32:14.375Z,98380.02
2023-11-08T21:34:43.662Z,98386.20
2023-11-08T21:37:12.302Z,98393.77
2023-11-08T21:39:42.218Z,98397.89
2023-11-08T21:42:09.676Z,98393.08
2023-11-08T21:44:37.030Z,98403.64
2023-11-08T21:47:05.935Z,98409.11
2023-11-08T21:49:34.146Z,98406.52
2023-11-08T21:52:01.754Z,98406.08
2023-11-08T21:54:29.510Z,98404.86
2023-11-08T21:56:56.969Z,98413.18
2023-11-08T21:59:24.564Z,98408.92
2023-11-08T22:01:51.953Z,98412.07
2023-11-08T22:04:19.395Z,98416.42
2023-11-08T22:06:46.945Z,98424.52
2023-11-08T22:09:14.381Z,98426.21
2023-11-08T22:11:42.236Z,98426.29
2023-11-08T22:14:09.690Z,98432.55
2023-11-08T22:16:40.501Z,98432.80
2023-11-08T22:19:09.986Z,98426.88
2023-11-08T22:21:42.623Z,98429.01
2023-11-08T22:24:11.090Z,98421.84
2023-11-08T22:26:38.459Z,98418.94
2023-11-08T22:29:06.748Z,98419.34
2023-11-08T22:31:36.145Z,98411.72
2023-11-08T22:34:03.948Z,98414.48
2023-11-08T22:36:33.278Z,98413.61
2023-11-08T22:39:02.209Z,98417.53
2023-11-08T22:41:29.813Z,98417.44
2023-11-08T22:43:57.218Z,98418.84
2023-11-08T22:46:31.690Z,98417.79
2023-11-08T22:48:59.643Z,98419.51
2023-11-08T22:51:28.407Z,98423.54
2023-11-08T22:53:55.884Z,98416.61
2023-11-08T22:56:24.180Z,98417.50
2023-11-08T22:58:51.679Z,98423.23
2023-11-08T23:01:33.896Z,98417.89
2023-11-08T23:04:04.893Z,98416.23
2023-11-08T23:06:32.828Z,98414.23
2023-11-08T23:09:03.832Z,98415.58
2023-11-08T23:11:32.281Z,98416.22
2023-11-08T23:14:00.115Z,98420.46
2023-11-08T23:16:28.354Z,98425.72
2023-11-08T23:18:56.150Z,98426.09
2023-11-08T23:21:23.800Z,98428.14
2023-11-08T23:23:52.719Z,98421.23
2023-11-08T23:26:20.541Z,98418.70
2023-11-08T23:28:48.024Z,98421.92
2023-11-08T23:31:15.567Z,98425.06
2023-11-08T23:33:43.115Z,98428.80
2023-11-08T23:36:13.604Z,98437.44
2023-11-08T23:38:44.794Z,98438.33
2023-11-08T23:41:12.139Z,98436.73
2023-11-08T23:43:39.871Z,98441.21
2023-11-08T23:46:07.407Z,98446.47
2023-11-08T23:48:34.939Z,98442.49
2023-11-08T23:51:02.513Z,98451.15
2023-11-08T23:53:29.928Z,98450.48
2023-11-08T23:55:58.672Z,98454.89
2023-11-08T23:58:26.003Z,98462.31
